Time;durP1;ratioP1;P1;durP2;ratioP2;P2;SDS_P1;SDS_P2;PMS_P1;PMS_P2;Temp;Humidity;BMP_temperature;BMP_pressure;BME280_temperature;BME280_humidity;BME280_pressure;Samples;Min_cycle;Max_cycle;Signal;HPM_P1;HPM_P2
2023/02/01 00:00:59;;;;;;;1.90;1.80;;;;;;;19.26;44.31;97876.63;4991310;28;20226;-88
2023/02/01 00:03:26;;;;;;;1.80;1.67;;;;;;;19.20;44.41;97861.06;4985674;28;20205;-88
2023/02/01 00:05:57;;;;;;;2.60;1.90;;;;;;;19.38;44.26;97887.38;5004297;28;20199;-88
2023/02/01 00:08:23;;;;;;;1.70;1.53;;;;;;;19.16;44.26;97838.84;4984923;28;20203;-88
2023/02/01 00:10:58;;;;;;;1.70;1.60;;;;;;;19.41;44.32;97872.22;5003227;28;20587;-88
2023/02/01 00:13:25;;;;;;;1.93;1.80;;;;;;;19.61;44.29;97907.09;5008449;28;20206;-88
2023/02/01 00:15:51;;;;;;;1.70;1.60;;;;;;;19.20;44.18;97833.06;5002715;28;20575;-88
2023/02/01 00:18:18;;;;;;;2.00;1.80;;;;;;;19.36;44.02;97863.53;4991323;28;20215;-88
2023/02/01 00:20:47;;;;;;;1.70;1.60;;;;;;;19.37;44.49;97862.72;4984925;28;20222;-88
2023/02/01 00:23:14;;;;;;;1.83;1.73;;;;;;;19.23;44.12;97833.19;4978890;28;20269;-88
2023/02/01 00:25:40;;;;;;;1.80;1.70;;;;;;;19.60;43.73;97903.69;4979329;28;20210;-88
2023/02/01 00:28:07;;;;;;;1.80;1.70;;;;;;;19.53;44.09;97885.50;4994112;28;20214;-88
2023/02/01 00:30:34;;;;;;;2.17;1.80;;;;;;;19.57;44.31;97879.75;4992744;28;20250;-88
2023/02/01 00:33:01;;;;;;;1.90;1.80;;;;;;;19.42;44.29;97858.72;4979788;28;20203;-88
2023/02/01 00:35:27;;;;;;;2.10;1.90;;;;;;;19.43;44.05;97865.53;4981494;28;20286;-88
2023/02/01 00:37:54;;;;;;;1.90;1.80;;;;;;;19.24;44.54;97830.69;5002696;28;20537;-88
2023/02/01 00:40:20;;;;;;;2.10;1.90;;;;;;;19.33;44.13;97837.94;4985530;28;20203;-88
2023/02/01 00:42:47;;;;;;;1.90;1.70;;;;;;;19.12;44.24;97806.38;4979123;28;20657;-88
2023/02/01 00:45:14;;;;;;;1.60;1.50;;;;;;;19.24;44.28;97825.59;4991841;28;20289;-88
2023/02/01 00:47:40;;;;;;;2.30;2.10;;;;;;;19.17;44.30;97813.41;4999220;28;20195;-88
2023/02/01 00:50:08;;;;;;;2.03;1.80;;;;;;;19.27;44.44;97838.50;4978514;28;20213;-88
2023/02/01 00:52:34;;;;;;;1.70;1.60;;;;;;;19.37;44.33;97848.31;4978736;28;20588;-88
2023/02/01 00:55:01;;;;;;;2.20;1.80;;;;;;;19.23;44.51;97825.53;4977411;28;20195;-88
2023/02/01 00:57:27;;;;;;;2.03;1.87;;;;;;;19.53;44.18;97868.53;5003789;28;20312;-88
2023/02/01 00:59:54;;;;;;;1.83;1.73;;;;;;;19.38;44.85;97836.41;5010043;28;20234;-87
2023/02/01 01:02:21;;;;;;;2.00;1.77;;;;;;;19.35;44.41;97831.19;5003017;28;20222;-88
2023/02/01 01:04:47;;;;;;;1.67;1.57;;;;;;;19.30;44.33;97828.44;4983979;28;20210;-88
2023/02/01 01:07:14;;;;;;;1.80;1.70;;;;;;;19.32;44.37;97825.97;4974949;28;20678;-88
2023/02/01 01:09:41;;;;;;;1.80;1.70;;;;;;;19.53;44.35;97862.56;5004659;28;20207;-88
2023/02/01 01:12:07;;;;;;;2.90;1.77;;;;;;;19.41;44.30;97841.66;5000620;28;20264;-88
2023/02/01 01:14:34;;;;;;;2.33;2.10;;;;;;;19.47;44.73;97844.47;4999664;28;20744;-88
2023/02/01 01:17:00;;;;;;;2.93;1.93;;;;;;;17.81;44.70;97567.28;4992052;28;20711;-88
2023/02/01 01:19:27;;;;;;;2.07;1.87;;;;;;;19.43;44.16;97833.28;5003692;28;20298;-88
2023/02/01 01:21:53;;;;;;;2.07;1.87;;;;;;;19.10;44.40;97782.53;4988098;28;20223;-88
2023/02/01 01:24:20;;;;;;;2.20;2.00;;;;;;;19.18;44.51;97793.88;4974103;28;20209;-88
2023/02/01 01:26:46;;;;;;;1.90;1.80;;;;;;;19.40;45.07;97832.28;5001089;28;20233;-88
2023/02/01 01:29:13;;;;;;;2.10;1.90;;;;;;;19.35;44.72;97826.97;4997421;28;20198;-88
2023/02/01 01:31:40;;;;;;;2.00;1.80;;;;;;;19.55;44.43;97860.97;5000927;28;20262;-88
2023/02/01 01:34:06;;;;;;;2.43;2.03;;;;;;;19.45;44.46;97838.44;4977042;28;20206;-88
2023/02/01 01:36:33;;;;;;;2.03;1.60;;;;;;;19.45;44.26;97833.34;5005945;28;20199;-88
2023/02/01 01:38:59;;;;;;;1.87;1.77;;;;;;;19.42;44.23;97828.13;4996394;28;20207;-88
2023/02/01 01:41:30;;;;;;;2.20;1.70;;;;;;;19.56;44.60;97855.03;4985990;28;20254;-88
2023/02/01 01:44:01;;;;;;;2.10;1.90;;;;;;;19.62;44.53;97863.81;5008079;28;20686;-88
2023/02/01 01:46:37;;;;;;;1.93;1.70;;;;;;;19.58;44.42;97858.53;5005821;28;20229;-88
2023/02/01 01:49:38;;;;;;;2.97;1.77;;;;;;;19.62;44.60;97868.03;4995885;28;20206;-88
2023/02/01 01:52:04;;;;;;;1.97;1.70;;;;;;;19.30;44.43;97810.59;4981553;28;20697;-88
2023/02/01 01:54:39;;;;;;;1.83;1.73;;;;;;;19.62;44.45;97865.50;4979270;28;20711;-88
2023/02/01 01:57:08;;;;;;;1.73;1.63;;;;;;;19.46;44.46;97824.88;4992744;28;20320;-88
2023/02/01 01:59:36;;;;;;;1.67;1.57;;;;;;;19.34;44.51;97803.97;4976695;28;20258;-88
2023/02/01 02:02:03;;;;;;;1.90;1.80;;;;;;;19.30;44.59;97794.47;4988625;28;20246;-88
2023/02/01 02:04:30;;;;;;;1.90;1.80;;;;;;;19.47;44.49;97830.03;4996815;28;20209;-88
2023/02/01 02:07:00;;;;;;;2.03;1.90;;;;;;;19.29;44.54;97782.53;4971497;28;20225;-88
2023/02/01 02:09:27;;;;;;;2.43;2.00;;;;;;;19.42;44.51;97823.88;4995750;28;20234;-88
2023/02/01 02:11:53;;;;;;;2.20;2.00;;;;;;;19.56;44.46;97840.63;4989619;28;20245;-88
2023/02/01 02:14:21;;;;;;;1.93;1.73;;;;;;;19.42;44.51;97820.47;4997523;28;20252;-88
2023/02/01 02:17:00;;;;;;;2.00;1.80;;;;;;;19.50;44.28;97824.19;4981813;28;20273;-88
2023/02/01 02:19:48;;;;;;;2.20;1.90;;;;;;;19.64;44.58;97856.25;4999921;28;20293;-88
2023/02/01 02:23:06;;;;;;;2.13;1.80;;;;;;;19.63;44.45;97852.81;4997752;28;20708;-88
2023/02/01 02:26:07;;;;;;;2.17;1.97;;;;;;;19.64;44.61;97851.16;5004650;28;20248;-88
2023/02/01 02:29:12;;;;;;;2.60;2.00;;;;;;;19.64;44.39;97840.94;5007625;28;20203;-88
2023/02/01 02:31:44;;;;;;;1.80;1.70;;;;;;;19.63;44.56;97840.06;4992704;28;20227;-88
2023/02/01 02:34:29;;;;;;;2.07;1.77;;;;;;;19.40;44.55;97794.94;5003093;28;20636;-88
2023/02/01 02:36:58;;;;;;;2.03;1.83;;;;;;;19.64;44.44;97838.41;4992842;28;20211;-88
2023/02/01 02:39:34;;;;;;;1.73;1.63;;;;;;;19.33;44.85;97780.16;5011280;28;20202;-88
2023/02/01 02:48:18;;;;;;;1.80;1.70;;;;;;;19.63;44.43;97832.41;5005084;28;20234;-88
2023/02/01 03:05:12;;;;;;;2.10;1.90;;;;;;;19.25;44.55;97747.50;4995099;28;20206;-88
2023/02/01 03:07:44;;;;;;;2.00;1.80;;;;;;;19.64;44.59;97815.44;5001602;28;20203;-88
2023/02/01 03:10:17;;;;;;;1.70;1.60;;;;;;;19.40;44.55;97771.09;5002467;28;20290;-88
2023/02/01 03:12:56;;;;;;;1.90;1.80;;;;;;;19.33;44.48;97761.47;4979517;28;20237;-88
2023/02/01 03:15:38;;;;;;;1.60;1.50;;;;;;;19.45;44.50;97769.63;5003874;28;20224;-88
2023/02/01 03:18:11;;;;;;;2.10;1.90;;;;;;;18.94;44.61;97678.22;4992827;28;20538;-87
2023/02/01 03:20:37;;;;;;;2.20;1.90;;;;;;;19.65;44.52;97809.53;4996140;28;20653;-88
2023/02/01 03:23:06;;;;;;;2.33;2.00;;;;;;;19.33;44.60;97757.22;4984583;28;20209;-88
2023/02/01 03:25:32;;;;;;;2.10;1.90;;;;;;;19.56;45.03;97787.09;4977209;28;20285;-88
2023/02/01 03:28:08;;;;;;;2.00;1.77;;;;;;;19.41;44.73;97748.22;4980459;28;20650;-88
2023/02/01 03:30:36;;;;;;;1.80;1.70;;;;;;;19.28;44.60;97723.06;4983920;28;20222;-88
2023/02/01 03:33:11;;;;;;;2.70;1.90;;;;;;;19.47;44.46;97748.47;4993187;28;20234;-87
2023/02/01 03:35:40;;;;;;;2.00;1.80;;;;;;;19.57;44.58;97767.56;4984845;28;20202;-88
2023/02/01 03:38:18;;;;;;;1.77;1.67;;;;;;;19.50;44.40;97750.28;4987677;28;20222;-88
2023/02/01 03:40:46;;;;;;;2.03;1.77;;;;;;;19.65;44.50;97786.59;5003143;28;20305;-89
2023/02/01 03:43:14;;;;;;;1.70;1.60;;;;;;;19.42;44.40;97755.06;4967130;28;20207;-88
2023/02/01 03:45:43;;;;;;;2.03;1.87;;;;;;;19.33;44.51;97744.47;4975461;28;20290;-88
2023/02/01 03:48:10;;;;;;;2.07;1.80;;;;;;;19.52;44.63;97779.25;4992699;28;20252;-88
2023/02/01 03:50:38;;;;;;;1.90;1.80;;;;;;;19.57;44.48;97787.97;4977870;28;20214;-88
2023/02/01 03:53:09;;;;;;;1.60;1.50;;;;;;;19.33;44.62;97746.19;4978914;28;20237;-88
2023/02/01 03:55:36;;;;;;;1.90;1.70;;;;;;;19.23;44.54;97724.50;4981892;28;20233;-88
2023/02/01 03:58:18;;;;;;;2.10;1.90;;;;;;;19.66;44.55;97790.91;4986648;28;20265;-88
2023/02/01 04:00:55;;;;;;;1.90;1.70;;;;;;;19.65;44.55;97791.69;4989467;28;20222;-88
2023/02/01 04:03:21;;;;;;;2.13;1.70;;;;;;;19.65;44.45;97784.91;4979994;28;20205;-88
2023/02/01 04:05:49;;;;;;;1.73;1.63;;;;;;;19.33;44.58;97721.56;5002744;28;20198;-88
2023/02/01 04:08:15;;;;;;;1.90;1.80;;;;;;;19.35;44.38;97732.69;4994009;28;20569;-89
2023/02/01 04:10:42;;;;;;;1.60;1.50;;;;;;;19.50;44.57;97768.13;5011835;28;20218;-88
2023/02/01 04:13:08;;;;;;;1.70;1.60;;;;;;;19.53;44.54;97773.34;4995653;28;20319;-88
2023/02/01 04:15:35;;;;;;;2.10;1.90;;;;;;;18.98;44.32;97667.38;5003646;28;20230;-88
2023/02/01 04:18:02;;;;;;;1.83;1.73;;;;;;;19.37;44.64;97731.09;4997575;28;20704;-88
2023/02/01 04:20:28;;;;;;;1.70;1.60;;;;;;;19.30;44.41;97723.13;4974562;28;20231;-89
2023/02/01 04:22:55;;;;;;;1.57;1.47;;;;;;;19.44;44.41;97750.03;5007466;28;20233;-88
2023/02/01 04:25:21;;;;;;;1.80;1.70;;;;;;;19.27;44.76;97725.56;4984963;28;20199;-88
2023/02/01 04:27:48;;;;;;;1.77;1.53;;;;;;;19.11;44.61;97716.34;4977492;28;20203;-89
2023/02/01 04:30:15;;;;;;;1.90;1.80;;;;;;;19.49;44.54;97762.16;5004128;28;20198;-88
2023/02/01 04:32:41;;;;;;;1.67;1.57;;;;;;;19.26;44.64;97711.00;4993982;28;20255;-88
2023/02/01 04:35:08;;;;;;;1.60;1.50;;;;;;;19.27;44.49;97715.34;4975037;28;20217;-89
2023/02/01 04:37:35;;;;;;;1.60;1.50;;;;;;;19.03;44.01;97666.75;4985594;28;20314;-88
2023/02/01 04:40:03;;;;;;;1.60;1.50;;;;;;;19.67;44.56;97768.00;4990144;28;20289;-88
2023/02/01 04:42:30;;;;;;;1.70;1.47;;;;;;;19.06;44.54;97663.47;5000561;28;20673;-88
2023/02/01 04:44:56;;;;;;;1.80;1.70;;;;;;;19.26;44.89;97688.97;4994729;28;20202;-88
2023/02/01 04:47:23;;;;;;;1.80;1.70;;;;;;;19.44;44.44;97721.97;4992607;28;20289;-89
2023/02/01 04:49:49;;;;;;;1.90;1.80;;;;;;;19.53;44.64;97730.88;4989408;28;20206;-89
2023/02/01 04:52:16;;;;;;;1.60;1.43;;;;;;;19.13;44.63;97645.09;4989403;28;20233;-88
2023/02/01 04:54:42;;;;;;;1.63;1.53;;;;;;;19.51;44.38;97717.19;4984172;28;20568;-89
2023/02/01 04:57:09;;;;;;;1.57;1.47;;;;;;;19.64;44.81;97739.84;5011713;28;20206;-89
2023/02/01 04:59:35;;;;;;;1.93;1.83;;;;;;;19.36;44.64;97696.19;5000018;28;20322;-89
2023/02/01 05:02:02;;;;;;;1.60;1.50;;;;;;;19.59;44.59;97732.78;4975985;28;20308;-89
2023/02/01 05:04:29;;;;;;;1.50;1.40;;;;;;;19.22;44.86;97671.78;5001683;28;20293;-89
2023/02/01 05:06:55;;;;;;;1.70;1.60;;;;;;;19.65;44.67;97748.34;5008411;28;20210;-90
2023/02/01 05:09:22;;;;;;;1.60;1.50;;;;;;;19.37;44.81;97710.69;5005666;28;20261;-88
2023/02/01 05:14:33;;;;;;;1.83;1.73;;;;;;;19.57;44.06;97739.53;4998429;28;20199;-89
2023/02/01 05:17:00;;;;;;;1.90;1.80;;;;;;;19.62;44.48;97759.28;4985280;28;20230;-89
2023/02/01 05:19:27;;;;;;;1.60;1.50;;;;;;;19.54;45.15;97741.97;5001846;28;20288;-88
2023/02/01 05:21:53;;;;;;;1.70;1.60;;;;;;;19.50;44.64;97740.97;5019204;28;20260;-88
2023/02/01 05:24:22;;;;;;;1.53;1.43;;;;;;;19.44;44.87;97720.31;5005705;28;20214;-88
2023/02/01 05:26:48;;;;;;;1.60;1.50;;;;;;;19.40;44.62;97710.81;4997486;28;20305;-88
2023/02/01 05:29:16;;;;;;;1.77;1.67;;;;;;;19.27;44.69;97680.53;4981801;28;20199;-87
2023/02/01 05:31:44;;;;;;;1.50;1.40;;;;;;;19.21;44.68;97672.59;5007287;28;20336;-87
2023/02/01 05:34:11;;;;;;;1.60;1.50;;;;;;;19.34;44.76;97694.41;4993218;28;20672;-87
2023/02/01 05:36:37;;;;;;;12.27;1.70;;;;;;;19.30;44.86;97683.19;4976449;28;20224;-88
2023/02/01 05:39:04;;;;;;;1.87;1.57;;;;;;;18.54;45.20;97563.72;4975327;28;20219;-88
2023/02/01 05:41:31;;;;;;;1.60;1.50;;;;;;;19.46;44.70;97710.19;4990404;28;20230;-87
2023/02/01 05:43:57;;;;;;;1.43;1.30;;;;;;;19.69;44.54;97745.13;5006776;28;20202;-88
2023/02/01 05:46:24;;;;;;;1.60;1.50;;;;;;;19.53;44.53;97718.13;5003872;28;20552;-88
2023/02/01 05:48:51;;;;;;;1.60;1.50;;;;;;;19.55;44.17;97725.84;4966341;28;20269;-87
2023/02/01 05:51:18;;;;;;;1.60;1.43;;;;;;;19.61;44.67;97734.63;4983186;28;20254;-88
2023/02/01 05:53:44;;;;;;;1.53;1.43;;;;;;;19.64;44.39;97741.50;5000287;28;20201;-87
2023/02/01 05:56:11;;;;;;;1.57;1.47;;;;;;;19.41;44.25;97699.81;4998899;28;20282;-88
2023/02/01 05:58:38;;;;;;;1.50;1.40;;;;;;;19.50;44.38;97714.59;5001093;28;20222;-88
2023/02/01 06:01:04;;;;;;;2.07;1.60;;;;;;;19.66;44.10;97739.91;4981849;28;20313;-88
2023/02/01 06:03:31;;;;;;;1.70;1.60;;;;;;;19.49;43.82;97705.22;4997644;28;20202;-89
2023/02/01 06:05:57;;;;;;;2.70;1.90;;;;;;;19.63;43.91;97722.78;4977574;28;20296;-88
2023/02/01 06:08:25;;;;;;;2.13;1.93;;;;;;;19.53;43.96;97702.84;4982428;28;20287;-88
2023/02/01 06:10:58;;;;;;;2.80;1.73;;;;;;;19.45;44.06;97677.88;4991997;28;20309;-88
2023/02/01 06:13:24;;;;;;;2.77;1.70;;;;;;;19.46;43.73;97687.25;4976683;28;20796;-88
2023/02/01 06:15:51;;;;;;;1.77;1.67;;;;;;;19.53;44.15;97696.88;4988659;28;20290;-87
2023/02/01 06:18:18;;;;;;;1.50;1.40;;;;;;;19.42;43.92;97680.31;4977407;28;20258;-87
2023/02/01 06:20:44;;;;;;;1.73;1.60;;;;;;;19.41;43.82;97688.72;4991173;28;20223;-87
2023/02/01 06:23:11;;;;;;;2.10;1.90;;;;;;;19.65;44.08;97730.50;5003678;28;20688;-88
2023/02/01 06:25:38;;;;;;;1.73;1.50;;;;;;;19.45;43.95;97681.25;4993432;28;20264;-87
2023/02/01 06:28:05;;;;;;;1.60;1.50;;;;;;;19.58;44.11;97714.09;4998636;28;20198;-88
2023/02/01 06:30:32;;;;;;;1.77;1.67;;;;;;;19.49;43.76;97700.09;5008743;28;20222;-87
2023/02/01 06:32:58;;;;;;;1.57;1.47;;;;;;;19.50;44.28;97699.28;5005095;28;20232;-87
2023/02/01 06:35:26;;;;;;;1.50;1.40;;;;;;;19.70;44.21;97735.00;4978079;28;20583;-87
2023/02/01 06:37:52;;;;;;;1.70;1.60;;;;;;;19.74;44.03;97733.41;4992211;28;20689;-87
2023/02/01 06:40:19;;;;;;;1.50;1.40;;;;;;;19.60;44.10;97714.16;5001237;28;20623;-87
2023/02/01 06:42:47;;;;;;;1.60;1.50;;;;;;;19.52;43.68;97708.75;4992330;28;20198;-87
2023/02/01 06:45:14;;;;;;;1.50;1.40;;;;;;;19.43;43.99;97689.66;4998018;28;20203;-87
2023/02/01 06:47:42;;;;;;;1.77;1.60;;;;;;;19.58;43.86;97708.13;5008599;28;20666;-87
2023/02/01 06:50:09;;;;;;;1.87;1.77;;;;;;;19.47;44.05;97696.63;4997070;28;20230;-88
2023/02/01 06:52:35;;;;;;;3.23;2.00;;;;;;;19.57;43.47;97703.84;4978364;28;20199;-88
2023/02/01 06:55:02;;;;;;;6.10;2.17;;;;;;;19.51;42.04;97701.91;4979904;28;20294;-87
2023/02/01 06:57:30;;;;;;;2.37;2.17;;;;;;;19.41;41.37;97694.72;4984928;28;20202;-87
2023/02/01 06:59:58;;;;;;;3.50;2.00;;;;;;;19.70;40.83;97731.56;4985683;28;20254;-87
2023/02/01 07:02:24;;;;;;;2.30;2.00;;;;;;;19.46;41.78;97692.34;4984443;28;20727;-87
2023/02/01 07:04:51;;;;;;;2.10;1.90;;;;;;;19.52;41.71;97710.44;4984402;28;20290;-87
2023/02/01 07:07:19;;;;;;;2.20;1.90;;;;;;;19.36;41.96;97680.91;4996521;28;20234;-88
2023/02/01 07:09:46;;;;;;;1.90;1.70;;;;;;;19.45;42.19;97709.31;5001456;28;20241;-87
2023/02/01 07:12:12;;;;;;;2.27;1.90;;;;;;;19.39;42.52;97698.00;4980705;28;20229;-87
2023/02/01 07:14:39;;;;;;;2.00;1.80;;;;;;;19.66;42.26;97738.19;5000487;28;20227;-87
2023/02/01 07:17:05;;;;;;;2.63;1.90;;;;;;;19.36;42.75;97688.53;4992037;28;20650;-87
2023/02/01 07:19:32;;;;;;;1.83;1.73;;;;;;;19.52;42.43;97723.19;4983054;28;20218;-87
2023/02/01 07:21:58;;;;;;;2.10;1.80;;;;;;;19.47;42.74;97707.69;4984572;28;20230;-88
2023/02/01 07:24:25;;;;;;;1.80;1.70;;;;;;;19.50;42.64;97715.47;4982849;28;20249;-87
2023/02/01 07:26:51;;;;;;;1.87;1.70;;;;;;;19.53;43.09;97723.22;5000445;28;20298;-87
2023/02/01 07:29:18;;;;;;;1.70;1.60;;;;;;;19.47;43.00;97709.38;4986507;28;20199;-87
2023/02/01 07:31:45;;;;;;;2.80;1.73;;;;;;;19.64;42.78;97744.06;4982465;28;20230;-87
2023/02/01 07:34:11;;;;;;;1.80;1.50;;;;;;;19.53;43.10;97720.69;4985504;28;20202;-87
2023/02/01 07:36:38;;;;;;;1.70;1.60;;;;;;;19.65;43.01;97749.22;4979361;28;20581;-87
2023/02/01 07:39:05;;;;;;;1.73;1.60;;;;;;;19.45;42.85;97704.22;4998136;28;20250;-86
2023/02/01 07:41:31;;;;;;;1.63;1.50;;;;;;;19.55;43.17;97728.41;5007819;28;20275;-87
2023/02/01 07:43:58;;;;;;;1.40;1.30;;;;;;;19.63;42.94;97743.19;4992129;28;20282;-87
2023/02/01 07:46:25;;;;;;;1.87;1.67;;;;;;;19.64;43.48;97751.72;4985436;28;20202;-86
2023/02/01 07:48:51;;;;;;;1.40;1.30;;;;;;;19.65;43.32;97749.22;4974424;28;20202;-86
2023/02/01 07:51:18;;;;;;;2.00;1.60;;;;;;;19.73;43.42;97762.28;5010424;28;20218;-86
2023/02/01 07:53:44;;;;;;;1.87;1.53;;;;;;;19.43;43.30;97715.16;5001228;28;20195;-86
2023/02/01 07:56:20;;;;;;;1.53;1.43;;;;;;;19.38;43.54;97703.91;4990382;28;20210;-87
2023/02/01 07:58:50;;;;;;;1.50;1.40;;;;;;;19.61;43.45;97747.38;5014301;28;20221;-87
2023/02/01 08:01:21;;;;;;;1.70;1.60;;;;;;;19.51;43.58;97731.63;4976564;28;20302;-86
2023/02/01 08:03:48;;;;;;;1.53;1.43;;;;;;;19.58;43.69;97738.72;5001000;28;20230;-87
2023/02/01 08:06:15;;;;;;;1.57;1.30;;;;;;;19.52;43.53;97730.81;5003969;28;20721;-86
2023/02/01 08:08:44;;;;;;;1.43;1.33;;;;;;;19.43;43.66;97705.84;4993975;28;20674;-86
2023/02/01 08:11:11;;;;;;;1.53;1.43;;;;;;;19.61;43.93;97728.63;4981673;28;20628;-86
2023/02/01 08:13:38;;;;;;;1.60;1.50;;;;;;;19.45;43.89;97703.34;4986344;28;20202;-87
2023/02/01 08:16:05;;;;;;;1.70;1.60;;;;;;;19.56;43.77;97732.66;4998684;28;20670;-86
2023/02/01 08:18:32;;;;;;;1.50;1.40;;;;;;;19.55;43.71;97734.38;4980759;28;20199;-86
2023/02/01 08:21:38;;;;;;;2.60;1.33;;;;;;;19.69;43.92;97765.53;5004308;28;20222;-87
2023/02/01 08:24:05;;;;;;;1.43;1.33;;;;;;;19.52;43.83;97726.59;4998318;28;20669;-86
2023/02/01 08:26:32;;;;;;;1.33;1.23;;;;;;;19.31;43.72;97690.06;4990692;28;20210;-86
2023/02/01 08:29:00;;;;;;;1.37;1.27;;;;;;;19.58;43.80;97748.91;5001060;28;20202;-86
2023/02/01 08:31:27;;;;;;;1.60;1.30;;;;;;;19.59;44.14;97758.28;4990354;28;20310;-86
2023/02/01 08:33:55;;;;;;;1.87;1.30;;;;;;;19.79;44.09;97788.03;4981180;28;20658;-87
2023/02/01 08:36:22;;;;;;;1.50;1.40;;;;;;;19.79;43.85;97793.13;5008914;28;20737;-86
2023/02/01 08:38:49;;;;;;;1.73;1.30;;;;;;;19.42;43.81;97733.81;5020491;28;20217;-86
2023/02/01 08:41:17;;;;;;;1.27;1.17;;;;;;;19.66;43.91;97775.59;4996779;28;20249;-86
2023/02/01 08:43:44;;;;;;;2.83;1.40;;;;;;;19.65;43.92;97763.63;4973100;28;20233;-87
2023/02/01 08:46:10;;;;;;;1.37;1.27;;;;;;;19.63;43.80;97762.72;4978662;28;20199;-86
2023/02/01 08:48:37;;;;;;;1.20;1.10;;;;;;;19.64;43.90;97767.88;4985760;28;20862;-86
2023/02/01 08:51:05;;;;;;;1.33;1.23;;;;;;;19.39;43.85;97729.44;5012181;28;20265;-86
2023/02/01 08:53:32;;;;;;;1.17;1.13;;;;;;;19.51;43.92;97752.03;4984345;28;20204;-87
2023/02/01 08:55:58;;;;;;;1.57;1.47;;;;;;;19.67;43.91;97777.34;4995343;28;20309;-86
2023/02/01 08:58:25;;;;;;;1.40;1.30;;;;;;;19.52;43.89;97752.09;4981096;28;20205;-86
2023/02/01 09:00:51;;;;;;;1.23;1.13;;;;;;;19.49;43.96;97754.53;4994005;28;20255;-86
2023/02/01 09:03:18;;;;;;;1.40;1.30;;;;;;;19.72;44.13;97802.19;4980534;28;20199;-87
2023/02/01 09:05:45;;;;;;;1.63;1.53;;;;;;;19.64;44.01;97789.94;4971614;28;20230;-86
2023/02/01 09:08:15;;;;;;;1.40;1.30;;;;;;;19.40;44.12;97753.25;4980401;28;20203;-86
2023/02/01 09:10:42;;;;;;;1.20;1.10;;;;;;;19.69;44.03;97791.88;4986370;28;20214;-86
2023/02/01 09:13:09;;;;;;;1.40;1.30;;;;;;;19.58;44.43;97767.63;5001979;28;20209;-86
2023/02/01 09:15:36;;;;;;;1.17;1.07;;;;;;;19.59;44.17;97769.38;4991377;28;20587;-86
2023/02/01 09:18:03;;;;;;;1.20;1.10;;;;;;;19.78;44.13;97801.59;4994036;28;20253;-86
2023/02/01 09:20:29;;;;;;;1.67;1.57;;;;;;;19.82;44.32;97814.53;4997085;28;20234;-86
2023/02/01 09:22:56;;;;;;;1.40;1.30;;;;;;;19.48;43.76;97762.09;4983444;28;20199;-86
2023/02/01 09:25:23;;;;;;;1.20;1.20;;;;;;;19.67;44.15;97795.19;4994667;28;20213;-86
2023/02/01 09:27:49;;;;;;;1.50;1.40;;;;;;;19.59;44.30;97787.22;4990827;28;20203;-86
2023/02/01 09:30:16;;;;;;;1.20;1.20;;;;;;;19.52;44.30;97780.13;4986106;28;20598;-86
2023/02/01 09:32:43;;;;;;;1.40;1.30;;;;;;;19.46;44.29;97762.03;4986698;28;20282;-86
2023/02/01 09:35:09;;;;;;;1.20;1.10;;;;;;;19.42;44.15;97757.59;5000137;28;20202;-87
2023/02/01 09:37:37;;;;;;;1.37;1.27;;;;;;;19.77;44.11;97817.69;4998525;28;20211;-87
2023/02/01 09:40:04;;;;;;;1.27;1.17;;;;;;;19.63;44.06;97803.53;4998027;28;20229;-86
2023/02/01 09:42:49;;;;;;;1.30;1.20;;;;;;;19.76;44.07;97828.69;4978085;28;20281;-87
2023/02/01 09:45:44;;;;;;;1.40;1.30;;;;;;;19.67;43.98;97811.34;4987478;28;20202;-86
2023/02/01 09:48:16;;;;;;;1.60;1.07;;;;;;;19.67;44.00;97810.47;5010893;28;20198;-87
2023/02/01 09:50:51;;;;;;;1.40;1.30;;;;;;;19.61;44.04;97800.91;4993534;28;20329;-87
2023/02/01 09:53:34;;;;;;;1.20;1.10;;;;;;;19.53;44.09;97786.97;4978657;28;20213;-87
2023/02/01 09:56:23;;;;;;;1.10;1.10;;;;;;;19.65;44.16;97818.06;5003056;28;20204;-87
2023/02/01 09:58:58;;;;;;;1.40;1.30;;;;;;;19.84;44.28;97848.59;5014912;28;20256;-87
2023/02/01 10:01:26;;;;;;;1.40;1.30;;;;;;;19.76;44.25;97838.91;5013818;28;20292;-87
2023/02/01 10:04:01;;;;;;;1.40;1.30;;;;;;;19.54;44.43;97808.25;4998020;28;20198;-87
2023/02/01 10:07:15;;;;;;;1.40;1.33;;;;;;;19.45;44.16;97793.41;5005411;28;20245;-87
2023/02/01 10:09:47;;;;;;;1.50;1.40;;;;;;;19.84;44.12;97861.34;4992819;28;20195;-87
2023/02/01 10:12:22;;;;;;;1.27;1.20;;;;;;;19.84;44.08;97866.44;4992784;28;20223;-88
2023/02/01 10:14:59;;;;;;;1.30;1.20;;;;;;;19.61;44.25;97836.59;5015179;28;20198;-87
2023/02/01 10:17:43;;;;;;;1.37;1.27;;;;;;;19.85;44.24;97877.53;4994360;28;20574;-87
2023/02/01 10:20:45;;;;;;;1.30;1.20;;;;;;;19.84;44.39;97871.56;5004507;28;20229;-87
2023/02/01 10:23:36;;;;;;;1.50;1.30;;;;;;;19.85;44.28;97872.44;5012662;28;20202;-87
2023/02/01 10:26:12;;;;;;;1.43;1.33;;;;;;;19.54;44.24;97815.88;5004313;28;20289;-86
2023/02/01 10:28:39;;;;;;;1.30;1.20;;;;;;;19.77;44.06;97869.56;5012727;28;20202;-87
2023/02/01 10:31:06;;;;;;;1.40;1.30;;;;;;;19.68;44.16;97850.44;4975721;28;20608;-88
2023/02/01 10:33:44;;;;;;;1.13;1.13;;;;;;;19.56;44.19;97827.00;4981998;28;20198;-87
2023/02/01 10:36:36;;;;;;;1.13;1.13;;;;;;;19.53;44.30;97814.13;4977467;28;20694;-87
2023/02/01 10:39:04;;;;;;;1.17;1.17;;;;;;;19.57;44.24;97818.56;4998629;28;20550;-87
2023/02/01 10:41:32;;;;;;;1.20;1.20;;;;;;;19.13;44.14;97741.91;4993051;28;20229;-87
2023/02/01 10:43:59;;;;;;;1.10;1.10;;;;;;;19.46;44.07;97792.63;4981129;28;20233;-87
2023/02/01 10:46:26;;;;;;;1.70;1.30;;;;;;;19.85;44.26;97860.56;4982906;28;20218;-87
2023/02/01 10:48:54;;;;;;;1.40;1.30;;;;;;;19.68;44.16;97825.84;4970247;28;20203;-87
2023/02/01 10:51:30;;;;;;;1.57;1.47;;;;;;;19.56;44.15;97802.38;5009608;28;20222;-88
2023/02/01 10:54:00;;;;;;;1.27;1.20;;;;;;;19.61;44.16;97802.56;5001465;28;20230;-87
2023/02/01 10:56:27;;;;;;;1.13;1.07;;;;;;;19.67;44.29;97805.38;4991303;28;20203;-88
2023/02/01 10:59:02;;;;;;;1.37;1.30;;;;;;;19.47;44.19;97776.50;4996304;28;20210;-87
2023/02/01 11:01:33;;;;;;;1.50;1.40;;;;;;;19.77;44.17;97822.78;4979732;28;20218;-87
2023/02/01 11:04:03;;;;;;;1.30;1.20;;;;;;;19.73;44.22;97826.03;5011898;28;20277;-87
2023/02/01 11:06:35;;;;;;;1.20;1.20;;;;;;;19.70;44.13;97823.34;4990129;28;20209;-87
2023/02/01 11:09:08;;;;;;;1.30;1.20;;;;;;;19.86;44.18;97852.09;4985179;28;20209;-87
2023/02/01 11:11:47;;;;;;;1.23;1.20;;;;;;;19.87;44.19;97847.88;5010334;28;20772;-88
2023/02/01 11:14:18;;;;;;;1.30;1.20;;;;;;;19.66;44.25;97821.50;5003444;28;20202;-88
2023/02/01 11:16:49;;;;;;;1.10;1.10;;;;;;;19.71;44.18;97837.84;4977510;28;20575;-87
2023/02/01 11:19:17;;;;;;;1.40;1.30;;;;;;;19.72;44.36;97845.53;4976230;28;20203;-87
2023/02/01 11:21:44;;;;;;;1.10;1.10;;;;;;;19.62;44.28;97835.78;5012506;28;20214;-87
2023/02/01 11:24:24;;;;;;;1.30;1.20;;;;;;;19.87;44.38;97875.94;4976909;28;20195;-87
2023/02/01 11:26:57;;;;;;;1.20;1.10;;;;;;;19.87;44.35;97873.38;5008046;28;20213;-87
2023/02/01 11:29:29;;;;;;;1.30;1.20;;;;;;;19.68;44.30;97837.69;4991742;28;20246;-87
2023/02/01 11:31:59;;;;;;;1.50;1.40;;;;;;;19.57;44.26;97811.75;4977336;28;20217;-88
2023/02/01 11:34:31;;;;;;;1.43;1.33;;;;;;;19.68;44.29;97830.06;4979499;28;20577;-88
2023/02/01 11:36:59;;;;;;;1.20;1.20;;;;;;;19.56;44.34;97806.59;4998163;28;20237;-87
2023/02/01 11:39:35;;;;;;;1.30;1.20;;;;;;;19.72;44.46;97824.28;4992133;28;20197;-88
2023/02/01 11:42:15;;;;;;;1.20;1.20;;;;;;;19.69;44.16;97819.91;5003300;28;20282;-87
2023/02/01 11:44:46;;;;;;;1.30;1.20;;;;;;;19.51;44.31;97785.16;4992196;28;20237;-87
2023/02/01 11:47:31;;;;;;;1.30;1.20;;;;;;;19.63;44.41;97788.22;4991252;28;20654;-88
2023/02/01 11:50:02;;;;;;;1.30;1.20;;;;;;;19.62;44.30;97789.88;5012898;28;20196;-87
2023/02/01 11:52:59;;;;;;;1.60;1.50;;;;;;;19.88;43.93;97817.31;4996014;28;20280;-87
2023/02/01 11:56:01;;;;;;;1.50;1.40;;;;;;;19.65;44.04;97772.16;5005954;28;20198;-87
2023/02/01 11:58:49;;;;;;;1.30;1.20;;;;;;;19.88;44.28;97801.13;4990381;28;20210;-88
2023/02/01 12:01:41;;;;;;;1.50;1.40;;;;;;;19.56;44.42;97759.03;5004144;28;20234;-87
2023/02/01 12:04:20;;;;;;;1.40;1.30;;;;;;;19.88;44.19;97808.78;5005092;28;20221;-88
2023/02/01 12:06:54;;;;;;;1.60;1.50;;;;;;;19.64;44.29;97769.56;5006230;28;20230;-88
2023/02/01 12:09:28;;;;;;;1.50;1.40;;;;;;;19.88;44.16;97816.44;4989058;28;20194;-87
2023/02/01 12:12:08;;;;;;;1.60;1.50;;;;;;;19.87;44.19;97807.06;4980241;28;20306;-87